Mt Lake Park, Maryland
Current Conditions -  °F | °C
As of 2:15 PM on Friday 24 Oct 2014 (Local Time) from K2G4 Reporting Station
Clear Clear  
Wind Chill: 50°   Ceiling: Unl
Heat Index: 50°   Visibility: 10mi
Dew Point: 32°   Wind: 9mph
Humidity: 50%   Direction: 280°W
Pressure: 30.02"   Gusts: NA
Location:  39.3804°N, 79.3888°W
Report Text: K2G4 241815Z AUTO 28008KT 10SM CLR 10/00 A3002 RMK AO1
Loading
Personal Weather Stations






























Interactive Weather Map
Tropical Storm Tracking
New forecast layout! Learn more

10-Day Weather Forecast

Advertisements
Track Severe Weather on mobile